createdAt,value
2019-05-19T00:00:26.476Z,96.40
2019-05-19T00:02:56.167Z,96.90
2019-05-19T00:05:25.879Z,96.70
2019-05-19T00:07:55.426Z,96.80
2019-05-19T00:10:24.948Z,96.50
2019-05-19T00:12:54.545Z,96.80
2019-05-19T00:15:24.101Z,96.50
2019-05-19T00:17:53.643Z,96.30
2019-05-19T00:20:23.233Z,96.10
2019-05-19T00:22:52.795Z,95.80
2019-05-19T00:25:22.397Z,96.10
2019-05-19T00:27:52.013Z,96.50
2019-05-19T00:30:21.648Z,96.50
2019-05-19T00:32:51.208Z,96.60
2019-05-19T00:35:20.944Z,97.20
2019-05-19T00:37:50.573Z,97.40
2019-05-19T00:40:20.192Z,97.00
2019-05-19T00:42:49.744Z,97.20
2019-05-19T00:45:19.615Z,96.20
2019-05-19T00:47:49.221Z,96.90
2019-05-19T00:50:18.891Z,96.60
2019-05-19T00:52:48.536Z,97.40
2019-05-19T00:55:18.082Z,97.20
2019-05-19T00:57:49.251Z,97.20
2019-05-19T01:00:20.073Z,97.20
2019-05-19T01:02:49.634Z,96.70
2019-05-19T01:05:20.850Z,96.00
2019-05-19T01:07:50.496Z,95.80
2019-05-19T01:10:20.216Z,95.40
2019-05-19T01:12:49.803Z,95.40
2019-05-19T01:15:19.533Z,95.30
2019-05-19T01:17:49.068Z,95.10
2019-05-19T01:20:18.863Z,94.80
2019-05-19T01:22:48.446Z,94.70
2019-05-19T01:25:18.100Z,94.70
2019-05-19T01:27:47.677Z,94.60
2019-05-19T01:30:17.667Z,94.80
2019-05-19T01:32:47.261Z,94.50
2019-05-19T01:35:17.866Z,95.10
2019-05-19T01:37:47.424Z,95.30
2019-05-19T01:40:17.105Z,95.20
2019-05-19T01:42:46.660Z,95.90
2019-05-19T01:45:16.739Z,96.10
2019-05-19T01:47:46.337Z,95.90
2019-05-19T01:50:18.021Z,96.00
2019-05-19T01:52:47.386Z,95.20
2019-05-19T01:55:17.029Z,96.40
2019-05-19T01:57:46.560Z,96.40
2019-05-19T02:00:16.353Z,96.60
2019-05-19T02:02:45.883Z,96.40
2019-05-19T02:05:15.869Z,96.30
2019-05-19T02:07:45.402Z,96.60
2019-05-19T02:10:15.114Z,96.40
2019-05-19T02:12:44.681Z,96.40
2019-05-19T02:15:14.519Z,96.30
2019-05-19T02:17:44.117Z,96.30
2019-05-19T02:20:15.212Z,96.30
2019-05-19T02:22:44.784Z,96.20
2019-05-19T02:25:14.585Z,96.00
2019-05-19T02:27:44.127Z,96.30
2019-05-19T02:30:14.131Z,96.40
2019-05-19T02:32:43.733Z,96.30
2019-05-19T02:35:13.320Z,96.40
2019-05-19T02:37:42.889Z,95.90
2019-05-19T02:40:12.707Z,96.70
2019-05-19T02:42:42.693Z,96.00
2019-05-19T02:45:13.825Z,95.90
2019-05-19T02:47:45.256Z,96.10
2019-05-19T02:50:14.923Z,95.80
2019-05-19T02:52:46.727Z,95.70
2019-05-19T02:55:18.161Z,95.80
2019-05-19T02:57:50.444Z,95.80
2019-05-19T03:00:24.008Z,95.90
2019-05-19T03:02:53.630Z,95.80
2019-05-19T03:05:23.166Z,95.80
2019-05-19T03:07:52.707Z,95.80
2019-05-19T03:10:22.313Z,95.90
2019-05-19T03:12:51.829Z,95.60
2019-05-19T03:15:21.426Z,96.10
2019-05-19T03:17:50.982Z,96.30
2019-05-19T03:20:20.664Z,96.10
2019-05-19T03:22:50.189Z,95.80
2019-05-19T03:25:19.812Z,95.70
2019-05-19T03:27:49.374Z,95.60
2019-05-19T03:30:35.100Z,96.00
2019-05-19T03:33:05.430Z,96.50
2019-05-19T03:35:35.056Z,97.00
2019-05-19T03:38:04.742Z,96.70
2019-05-19T03:40:34.262Z,96.70
2019-05-19T03:43:03.808Z,96.90
2019-05-19T03:45:33.375Z,96.70
2019-05-19T03:48:02.905Z,96.90
2019-05-19T03:50:32.449Z,97.00
2019-05-19T03:53:02.076Z,96.90
2019-05-19T03:55:31.648Z,97.30
2019-05-19T03:58:01.296Z,97.10
2019-05-19T04:00:30.853Z,97.60
2019-05-19T04:03:00.487Z,97.50
2019-05-19T04:05:30.840Z,97.70
2019-05-19T04:08:00.426Z,97.40
2019-05-19T04:10:29.990Z,97.40
2019-05-19T04:12:59.538Z,96.60
2019-05-19T04:15:29.107Z,96.60
2019-05-19T04:17:58.681Z,96.90
2019-05-19T04:20:28.290Z,97.10
2019-05-19T04:22:57.877Z,97.20
2019-05-19T04:25:27.424Z,97.90
2019-05-19T04:27:57.023Z,97.80
2019-05-19T04:30:26.635Z,97.10
2019-05-19T04:32:56.212Z,96.90
2019-05-19T04:35:25.803Z,96.50
2019-05-19T04:37:55.412Z,96.00
2019-05-19T04:40:25.061Z,96.60
2019-05-19T04:42:57.963Z,97.10
2019-05-19T04:45:27.672Z,96.70
2019-05-19T04:47:57.319Z,96.70
2019-05-19T04:50:26.907Z,96.20
2019-05-19T04:52:56.689Z,95.40
2019-05-19T04:55:26.268Z,95.90
2019-05-19T04:57:55.888Z,95.20
2019-05-19T05:00:25.578Z,95.80
2019-05-19T05:02:55.193Z,96.30
2019-05-19T05:05:24.775Z,95.40
2019-05-19T05:07:54.324Z,95.70
2019-05-19T05:10:23.894Z,94.70
2019-05-19T05:12:53.501Z,94.60
2019-05-19T05:15:23.085Z,94.30
2019-05-19T05:17:52.645Z,95.20
2019-05-19T05:20:22.209Z,94.70
2019-05-19T05:22:51.759Z,94.50
2019-05-19T05:25:21.340Z,94.60
2019-05-19T05:27:50.917Z,94.70
2019-05-19T05:30:20.720Z,94.90
2019-05-19T05:32:50.352Z,95.50
2019-05-19T05:35:19.965Z,95.00
2019-05-19T05:37:49.572Z,95.50
2019-05-19T05:40:19.242Z,95.70
2019-05-19T05:42:48.813Z,95.50
2019-05-19T05:45:18.460Z,94.70
2019-05-19T05:47:48.032Z,94.00
2019-05-19T05:50:17.736Z,94.70
2019-05-19T05:52:47.335Z,94.60
2019-05-19T05:55:16.976Z,94.00
2019-05-19T05:57:46.575Z,93.40
2019-05-19T06:00:16.302Z,93.70
2019-05-19T06:02:45.868Z,94.30
2019-05-19T06:05:15.534Z,94.80
2019-05-19T06:07:45.154Z,93.00
2019-05-19T06:10:15.080Z,92.50
2019-05-19T06:12:44.723Z,93.90
2019-05-19T06:15:14.824Z,93.10
2019-05-19T06:17:44.385Z,92.30
2019-05-19T06:20:14.162Z,93.00
2019-05-19T06:22:56.010Z,92.70
2019-05-19T06:25:14.995Z,93.00
2019-05-19T06:27:44.600Z,94.30
2019-05-19T06:30:14.469Z,92.50
2019-05-19T06:32:47.312Z,92.70
2019-05-19T06:35:18.313Z,92.50
2019-05-19T06:37:48.435Z,91.10
2019-05-19T06:40:18.132Z,91.30
2019-05-19T06:42:47.708Z,90.90
2019-05-19T06:45:17.458Z,90.70
2019-05-19T06:47:46.995Z,90.60
2019-05-19T06:50:17.682Z,91.10
2019-05-19T06:52:47.252Z,90.60
2019-05-19T06:55:17.103Z,90.40
2019-05-19T06:57:46.761Z,89.60
2019-05-19T07:00:16.464Z,89.50
2019-05-19T07:02:46.044Z,89.30
2019-05-19T07:05:15.728Z,87.40
2019-05-19T07:07:45.289Z,87.10
2019-05-19T07:10:14.889Z,88.00
2019-05-19T07:12:44.803Z,86.40
2019-05-19T07:15:14.869Z,87.70
2019-05-19T07:17:44.553Z,87.40
2019-05-19T07:20:14.140Z,85.70
2019-05-19T07:22:44.683Z,84.20
2019-05-19T07:25:14.716Z,85.00
2019-05-19T07:27:44.260Z,85.70
2019-05-19T07:30:15.464Z,82.80
2019-05-19T07:32:45.092Z,84.40
2019-05-19T07:35:14.644Z,83.40
2019-05-19T07:37:44.222Z,83.20
2019-05-19T07:40:13.990Z,78.80
2019-05-19T07:42:43.532Z,79.50
2019-05-19T07:45:13.553Z,77.30
2019-05-19T07:47:43.102Z,77.00
2019-05-19T07:50:12.795Z,75.70
2019-05-19T07:52:42.439Z,76.70
2019-05-19T07:55:12.389Z,75.30
2019-05-19T07:57:41.933Z,75.00
2019-05-19T08:00:11.860Z,74.00
2019-05-19T08:02:41.410Z,72.70
2019-05-19T08:05:11.154Z,72.60
2019-05-19T08:07:40.746Z,73.70
2019-05-19T08:10:10.666Z,74.40
2019-05-19T08:12:40.330Z,73.50
2019-05-19T08:15:10.073Z,73.10
2019-05-19T08:17:39.655Z,70.50
2019-05-19T08:20:09.784Z,71.00
2019-05-19T08:22:40.300Z,69.50
2019-05-19T08:25:10.479Z,70.20
2019-05-19T08:27:40.070Z,70.90
2019-05-19T08:30:10.246Z,70.60
2019-05-19T08:32:39.795Z,70.10
2019-05-19T08:35:09.499Z,70.40
2019-05-19T08:37:39.101Z,69.50
2019-05-19T08:40:09.026Z,72.30
2019-05-19T08:42:38.608Z,72.00
2019-05-19T08:45:08.596Z,70.50
2019-05-19T08:47:38.197Z,70.60
2019-05-19T08:50:07.842Z,69.70
2019-05-19T08:52:37.423Z,70.10
2019-05-19T08:55:07.551Z,70.70
2019-05-19T08:57:37.113Z,70.40
2019-05-19T09:00:07.259Z,71.90
2019-05-19T09:02:36.893Z,68.90
2019-05-19T09:05:06.579Z,71.10
2019-05-19T09:07:36.165Z,69.70
2019-05-19T09:10:06.258Z,68.50
2019-05-19T09:12:35.784Z,67.30
2019-05-19T09:15:05.644Z,67.20
2019-05-19T09:17:35.217Z,68.90
2019-05-19T09:20:05.481Z,67.40
2019-05-19T09:22:35.069Z,66.90
2019-05-19T09:25:05.053Z,66.90
2019-05-19T09:27:34.650Z,66.30
2019-05-19T09:30:04.732Z,68.40
2019-05-19T09:32:34.279Z,67.00
2019-05-19T09:35:04.040Z,65.30
2019-05-19T09:37:33.622Z,65.60
2019-05-19T09:40:03.355Z,65.40
2019-05-19T09:42:33.412Z,65.00
2019-05-19T09:45:03.009Z,65.10
2019-05-19T09:47:32.727Z,63.20
2019-05-19T09:50:02.389Z,63.50
2019-05-19T09:52:31.972Z,63.40
2019-05-19T09:55:01.556Z,65.40
2019-05-19T09:57:31.128Z,64.10
2019-05-19T10:00:00.717Z,64.60
2019-05-19T10:02:30.332Z,63.40
2019-05-19T10:04:59.864Z,63.80
2019-05-19T10:07:29.458Z,61.80
2019-05-19T10:10:03.616Z,62.40
2019-05-19T10:12:33.344Z,60.10
2019-05-19T10:15:03.602Z,60.80
2019-05-19T10:17:38.433Z,59.90
2019-05-19T10:20:12.512Z,61.70
2019-05-19T10:22:42.080Z,61.60
2019-05-19T10:25:23.093Z,58.30
2019-05-19T10:27:45.944Z,60.00
2019-05-19T10:30:16.129Z,59.80
2019-05-19T10:32:45.738Z,58.90
2019-05-19T10:35:15.471Z,56.80
2019-05-19T10:37:45.072Z,58.40
2019-05-19T10:40:14.862Z,57.40
2019-05-19T10:42:44.527Z,56.80
2019-05-19T10:45:14.339Z,56.40
2019-05-19T10:47:43.952Z,58.00
2019-05-19T10:50:14.171Z,57.10
2019-05-19T10:52:43.757Z,57.40
2019-05-19T10:55:13.403Z,54.70
2019-05-19T10:57:42.953Z,54.80
2019-05-19T11:00:13.095Z,52.20
2019-05-19T11:02:42.761Z,53.60
2019-05-19T11:05:12.468Z,53.30
2019-05-19T11:07:42.148Z,54.00
2019-05-19T11:10:12.089Z,52.80
2019-05-19T11:12:41.708Z,53.60
2019-05-19T11:15:11.722Z,52.90
2019-05-19T11:17:41.355Z,52.40
2019-05-19T11:20:11.073Z,52.90
2019-05-19T11:22:40.620Z,52.80
2019-05-19T11:25:10.251Z,51.80
2019-05-19T11:27:39.841Z,51.20
2019-05-19T11:30:10.644Z,52.10
2019-05-19T11:32:40.729Z,51.90
2019-05-19T11:35:10.379Z,51.20
2019-05-19T11:37:40.025Z,50.00
2019-05-19T11:40:09.705Z,53.60
2019-05-19T11:42:39.402Z,51.50
2019-05-19T11:45:09.041Z,51.40
2019-05-19T11:47:38.604Z,48.90
2019-05-19T11:50:08.266Z,51.00
2019-05-19T11:52:37.884Z,51.00
2019-05-19T11:55:07.635Z,51.30
2019-05-19T11:57:37.252Z,52.30
2019-05-19T12:00:07.858Z,51.40
2019-05-19T12:02:38.450Z,50.80
2019-05-19T12:05:08.645Z,49.60
2019-05-19T12:07:38.220Z,51.40
2019-05-19T12:10:08.014Z,49.20
2019-05-19T12:12:37.700Z,51.20
2019-05-19T12:15:08.155Z,49.40
2019-05-19T12:17:37.887Z,50.50
2019-05-19T12:20:07.564Z,50.20
2019-05-19T12:22:37.215Z,49.30
2019-05-19T12:25:07.657Z,50.40
2019-05-19T12:27:37.482Z,49.30
2019-05-19T12:30:54.119Z,48.30
2019-05-19T12:33:52.088Z,49.30
2019-05-19T12:36:17.712Z,46.20
2019-05-19T12:38:47.317Z,49.40
2019-05-19T12:41:16.860Z,47.80
2019-05-19T12:43:46.490Z,47.80
2019-05-19T12:46:16.912Z,46.50
2019-05-19T12:48:46.665Z,48.70
2019-05-19T12:51:19.461Z,48.30
2019-05-19T12:53:49.232Z,46.30
2019-05-19T12:56:18.840Z,44.60
2019-05-19T12:58:48.500Z,48.00
2019-05-19T13:01:18.049Z,51.00
2019-05-19T13:03:47.639Z,47.50
2019-05-19T13:06:17.271Z,47.00
2019-05-19T13:08:46.872Z,46.70
2019-05-19T13:11:16.484Z,48.10
2019-05-19T13:13:46.056Z,47.20
2019-05-19T13:16:15.648Z,46.90
2019-05-19T13:18:45.242Z,47.50
2019-05-19T13:21:14.990Z,49.30
2019-05-19T13:23:44.577Z,50.10
2019-05-19T13:26:14.173Z,49.60
2019-05-19T13:28:43.717Z,51.30
2019-05-19T13:31:13.298Z,51.90
2019-05-19T13:33:42.893Z,52.00
2019-05-19T13:36:15.011Z,51.80
2019-05-19T13:38:44.634Z,51.40
2019-05-19T13:41:14.518Z,51.60
2019-05-19T13:43:44.134Z,50.60
2019-05-19T13:46:13.697Z,50.30
2019-05-19T13:48:43.412Z,51.30
2019-05-19T13:51:12.973Z,51.30
2019-05-19T13:53:42.527Z,50.40
2019-05-19T13:56:12.052Z,49.40
2019-05-19T13:58:41.697Z,48.70
2019-05-19T14:01:27.578Z,48.90
2019-05-19T14:03:45.417Z,49.20
2019-05-19T14:06:15.015Z,49.10
2019-05-19T14:08:44.572Z,48.40
2019-05-19T14:11:14.133Z,48.60
2019-05-19T14:13:43.753Z,48.70
2019-05-19T14:16:13.544Z,48.10
2019-05-19T14:18:43.172Z,49.20
2019-05-19T14:21:12.748Z,49.10
2019-05-19T14:23:42.385Z,49.00
2019-05-19T14:26:11.981Z,48.80
2019-05-19T14:28:41.541Z,48.50
2019-05-19T14:31:11.095Z,48.50
2019-05-19T14:33:40.659Z,49.10
2019-05-19T14:36:10.195Z,49.40
2019-05-19T14:38:41.447Z,49.30
2019-05-19T14:41:11.029Z,49.60
2019-05-19T14:43:40.606Z,49.70
2019-05-19T14:46:10.468Z,49.40
2019-05-19T14:48:40.063Z,49.80
2019-05-19T14:51:09.625Z,49.40
2019-05-19T14:53:39.287Z,49.90
2019-05-19T14:56:09.000Z,49.90
2019-05-19T14:58:39.618Z,50.20
2019-05-19T15:01:09.435Z,50.40
2019-05-19T15:03:39.032Z,50.40
2019-05-19T15:06:09.146Z,50.10
2019-05-19T15:08:38.774Z,50.20
2019-05-19T15:11:08.351Z,50.70
2019-05-19T15:13:37.928Z,50.90
2019-05-19T15:16:07.613Z,52.40
2019-05-19T15:18:37.380Z,53.20
2019-05-19T15:21:07.160Z,54.10
2019-05-19T15:23:37.323Z,55.60
2019-05-19T15:26:26.095Z,56.50
2019-05-19T15:28:48.432Z,56.30
2019-05-19T15:31:18.005Z,55.20
2019-05-19T15:33:47.581Z,55.20
2019-05-19T15:36:17.131Z,55.50
2019-05-19T15:38:46.668Z,56.30
2019-05-19T15:41:16.257Z,56.30
2019-05-19T15:43:51.162Z,56.70
2019-05-19T15:46:22.634Z,57.60
2019-05-19T15:48:53.567Z,57.90
2019-05-19T15:51:29.191Z,59.60
2019-05-19T15:53:54.611Z,60.10
2019-05-19T15:56:24.257Z,59.80
2019-05-19T15:58:53.813Z,60.10
2019-05-19T16:01:23.436Z,59.70
2019-05-19T16:03:53.101Z,59.90
2019-05-19T16:06:22.635Z,60.50
2019-05-19T16:08:52.246Z,61.10
2019-05-19T16:11:21.806Z,62.40
2019-05-19T16:13:51.339Z,62.90
2019-05-19T16:16:20.938Z,62.80
2019-05-19T16:18:53.215Z,62.70
2019-05-19T16:21:21.794Z,63.20
2019-05-19T16:23:51.377Z,63.60
2019-05-19T16:26:20.943Z,64.20
2019-05-19T16:28:50.510Z,65.20
2019-05-19T16:31:20.073Z,65.30
2019-05-19T16:33:49.683Z,66.80
2019-05-19T16:36:19.248Z,66.60
2019-05-19T16:38:50.031Z,68.20
2019-05-19T16:41:19.628Z,68.10
2019-05-19T16:43:49.207Z,68.50
2019-05-19T16:46:18.810Z,69.10
2019-05-19T16:48:48.360Z,69.30
2019-05-19T16:51:17.907Z,70.50
2019-05-19T16:53:49.656Z,70.30
2019-05-19T16:56:19.245Z,71.20
2019-05-19T16:58:48.901Z,70.60
2019-05-19T17:01:20.070Z,71.70
2019-05-19T17:03:49.819Z,71.80
2019-05-19T17:06:19.570Z,72.10
2019-05-19T17:08:49.193Z,73.80
2019-05-19T17:11:18.918Z,74.40
2019-05-19T17:13:48.594Z,73.50
2019-05-19T17:16:19.217Z,73.90
2019-05-19T17:18:48.804Z,74.20
2019-05-19T17:21:18.381Z,75.40
2019-05-19T17:23:47.985Z,74.30
2019-05-19T17:26:17.511Z,75.50
2019-05-19T17:28:59.745Z,76.10
2019-05-19T17:31:19.322Z,77.40
2019-05-19T17:33:48.901Z,77.50
2019-05-19T17:36:18.491Z,77.60
2019-05-19T17:38:48.050Z,78.80
2019-05-19T17:41:17.629Z,78.70
2019-05-19T17:43:47.179Z,78.10
2019-05-19T17:46:16.777Z,79.30
2019-05-19T17:48:46.477Z,79.20
2019-05-19T17:51:16.059Z,80.10
2019-05-19T17:53:45.653Z,80.20
2019-05-19T17:56:16.678Z,80.50
2019-05-19T17:58:46.624Z,80.70
2019-05-19T18:01:16.200Z,80.80
2019-05-19T18:03:46.128Z,80.60
2019-05-19T18:06:15.688Z,79.60
2019-05-19T18:08:45.261Z,81.10
2019-05-19T18:11:14.807Z,80.80
2019-05-19T18:13:44.381Z,80.40
2019-05-19T18:16:13.949Z,81.00
2019-05-19T18:18:43.530Z,80.10
2019-05-19T18:21:13.079Z,79.30
2019-05-19T18:23:42.665Z,78.50
2019-05-19T18:26:12.243Z,78.70
2019-05-19T18:28:41.864Z,78.00
2019-05-19T18:31:11.428Z,77.80
2019-05-19T18:33:40.985Z,77.80
2019-05-19T18:36:10.584Z,77.30
2019-05-19T18:38:40.165Z,77.30
2019-05-19T18:41:09.776Z,77.40
2019-05-19T18:43:39.352Z,77.70
2019-05-19T18:46:08.966Z,77.70
2019-05-19T18:48:38.590Z,78.10
2019-05-19T18:51:08.209Z,78.40
2019-05-19T18:53:38.565Z,78.60
2019-05-19T18:56:09.326Z,79.20
2019-05-19T18:58:38.878Z,79.50
2019-05-19T19:01:08.596Z,80.20
2019-05-19T19:03:38.128Z,79.90
2019-05-19T19:06:07.701Z,80.40
2019-05-19T19:08:37.905Z,81.00
2019-05-19T19:11:08.609Z,81.40
2019-05-19T19:13:38.177Z,81.50
2019-05-19T19:16:07.705Z,82.90
2019-05-19T19:18:37.245Z,83.70
2019-05-19T19:21:06.914Z,83.10
2019-05-19T19:23:36.448Z,84.10
2019-05-19T19:26:06.029Z,84.70
2019-05-19T19:28:35.560Z,85.30
2019-05-19T19:31:05.189Z,85.80
2019-05-19T19:33:34.733Z,85.70
2019-05-19T19:36:04.467Z,86.40
2019-05-19T19:38:34.032Z,87.40
2019-05-19T19:41:03.589Z,87.10
2019-05-19T19:43:33.177Z,86.50
2019-05-19T19:46:02.777Z,87.50
2019-05-19T19:48:33.391Z,87.60
2019-05-19T19:51:02.933Z,87.80
2019-05-19T19:53:32.476Z,88.10
2019-05-19T19:56:02.896Z,88.20
2019-05-19T19:58:35.108Z,89.20
2019-05-19T20:01:06.387Z,88.40
2019-05-19T20:03:40.352Z,89.20
2019-05-19T20:06:11.910Z,90.10
2019-05-19T20:08:44.239Z,89.50
2019-05-19T20:11:13.864Z,89.30
2019-05-19T20:13:43.455Z,90.10
2019-05-19T20:16:13.059Z,90.30
2019-05-19T20:18:42.685Z,90.80
2019-05-19T20:21:12.257Z,90.40
2019-05-19T20:23:41.837Z,90.50
2019-05-19T20:26:11.422Z,91.30
2019-05-19T20:28:41.001Z,91.10
2019-05-19T20:31:10.610Z,90.90
2019-05-19T20:33:40.129Z,91.20
2019-05-19T20:36:09.741Z,92.00
2019-05-19T20:38:39.275Z,91.80
2019-05-19T20:41:08.861Z,92.00
2019-05-19T20:43:38.445Z,91.20
2019-05-19T20:46:11.862Z,91.50
2019-05-19T20:48:41.424Z,91.70
2019-05-19T20:51:10.970Z,91.40
2019-05-19T20:53:40.500Z,91.40
2019-05-19T20:56:10.059Z,91.70
2019-05-19T20:58:39.635Z,91.70
2019-05-19T21:01:09.237Z,92.00
2019-05-19T21:03:39.797Z,91.50
2019-05-19T21:06:09.417Z,92.20
2019-05-19T21:08:38.997Z,92.00
2019-05-19T21:11:08.919Z,92.00
2019-05-19T21:13:38.478Z,92.50
2019-05-19T21:16:08.029Z,92.20
2019-05-19T21:18:37.649Z,92.50
2019-05-19T21:21:07.236Z,92.60
2019-05-19T21:23:36.810Z,92.40
2019-05-19T21:26:06.364Z,92.60
2019-05-19T21:28:35.917Z,92.80
2019-05-19T21:31:06.393Z,92.70
2019-05-19T21:33:36.225Z,92.50
2019-05-19T21:36:05.793Z,92.60
2019-05-19T21:38:35.401Z,93.00
2019-05-19T21:41:04.972Z,93.50
2019-05-19T21:43:34.549Z,94.00
2019-05-19T21:46:06.509Z,93.50
2019-05-19T21:48:37.858Z,94.00
2019-05-19T21:51:09.964Z,93.60
2019-05-19T21:53:42.199Z,93.30
2019-05-19T21:56:11.997Z,93.90
2019-05-19T21:58:41.629Z,94.20
2019-05-19T22:01:22.626Z,93.80
2019-05-19T22:03:42.945Z,94.20
2019-05-19T22:06:12.607Z,95.00
2019-05-19T22:08:42.176Z,94.30
2019-05-19T22:11:11.804Z,94.90
2019-05-19T22:13:41.471Z,95.50
2019-05-19T22:16:13.286Z,94.80
2019-05-19T22:18:42.266Z,95.40
2019-05-19T22:21:11.799Z,95.60
2019-05-19T22:23:41.382Z,95.30
2019-05-19T22:26:10.952Z,95.70
2019-05-19T22:28:41.493Z,95.10
2019-05-19T22:31:11.101Z,95.90
2019-05-19T22:33:40.700Z,96.90
2019-05-19T22:36:10.245Z,96.20
2019-05-19T22:38:39.869Z,96.00
2019-05-19T22:41:09.407Z,96.80
2019-05-19T22:43:38.967Z,96.60
2019-05-19T22:46:08.508Z,96.30
2019-05-19T22:48:38.140Z,96.90
2019-05-19T22:51:07.798Z,97.00
2019-05-19T22:53:37.393Z,97.60
2019-05-19T22:56:06.995Z,97.30
2019-05-19T22:58:36.688Z,97.10
2019-05-19T23:01:06.301Z,97.30
2019-05-19T23:03:35.958Z,97.60
2019-05-19T23:06:05.577Z,97.70
2019-05-19T23:08:35.197Z,97.40
2019-05-19T23:11:05.020Z,97.40
2019-05-19T23:13:36.830Z,97.30
2019-05-19T23:16:09.252Z,97.40
2019-05-19T23:18:44.092Z,98.10
2019-05-19T23:21:16.387Z,98.10
2019-05-19T23:23:48.250Z,98.60
2019-05-19T23:26:18.448Z,98.20
2019-05-19T23:28:48.161Z,98.50
2019-05-19T23:31:17.810Z,98.50
2019-05-19T23:33:47.476Z,98.10
2019-05-19T23:36:18.145Z,98.20
2019-05-19T23:38:47.734Z,98.30
2019-05-19T23:41:17.333Z,97.70
2019-05-19T23:43:46.929Z,99.20
2019-05-19T23:46:16.592Z,98.90
2019-05-19T23:48:46.275Z,98.90
2019-05-19T23:51:15.861Z,99.10
2019-05-19T23:53:45.412Z,98.40
2019-05-19T23:56:15.010Z,99.10
2019-05-19T23:58:44.594Z,98.60
